Time;durP1;ratioP1;P1;durP2;ratioP2;P2;SDS_P1;SDS_P2;PMS_P1;PMS_P2;Temp;Humidity;BMP_temperature;BMP_pressure;BME280_temperature;BME280_humidity;BME280_pressure;Samples;Min_cycle;Max_cycle;Signal;HPM_P1;HPM_P2
2022/08/23 00:02:02;;;;;;;6.03;3.42;;;;;;;21.13;49.63;98096.97;5120035;27;20091;-93
2022/08/23 00:04:30;;;;;;;5.53;3.10;;;;;;;21.12;49.96;98082.59;5119351;27;20054;-92
2022/08/23 00:06:58;;;;;;;5.20;3.35;;;;;;;21.20;48.67;98095.47;5124899;27;20075;-92
2022/08/23 00:09:26;;;;;;;5.63;3.13;;;;;;;21.17;49.26;98100.31;5118148;27;20126;-93
2022/08/23 00:11:54;;;;;;;6.05;3.20;;;;;;;21.12;48.69;98093.41;5117790;27;20040;-95
2022/08/23 00:14:22;;;;;;;5.38;3.40;;;;;;;21.05;48.73;98075.09;5119437;27;20048;-94
2022/08/23 00:16:50;;;;;;;6.25;3.50;;;;;;;21.09;48.72;98082.84;5118107;27;20156;-93
2022/08/23 00:19:18;;;;;;;5.30;3.00;;;;;;;21.18;49.00;98083.09;5125090;27;20039;-92
2022/08/23 00:21:45;;;;;;;4.95;3.30;;;;;;;21.06;49.31;98083.09;5125157;27;20123;-93
2022/08/23 00:24:12;;;;;;;6.15;3.30;;;;;;;21.06;49.15;98090.34;5123654;27;20038;-95
2022/08/23 00:26:49;;;;;;;5.75;3.40;;;;;;;21.05;49.43;98094.88;5117065;27;20447;-93
2022/08/23 00:29:16;;;;;;;5.97;3.28;;;;;;;21.02;48.72;98078.91;5117154;27;20052;-92
2022/08/23 00:31:42;;;;;;;5.15;3.20;;;;;;;20.95;48.83;98064.19;5120584;27;20070;-93
2022/08/23 00:34:09;;;;;;;7.05;2.90;;;;;;;21.06;48.67;98085.81;5119223;27;20048;-93
2022/08/23 00:36:35;;;;;;;4.90;3.08;;;;;;;21.06;48.96;98075.00;5122434;27;20088;-94
2022/08/23 00:39:01;;;;;;;5.45;3.20;;;;;;;21.04;49.20;98085.06;5121295;27;20096;-93
2022/08/23 00:41:28;;;;;;;5.80;3.30;;;;;;;21.01;49.05;98089.84;5118212;28;20038;-93
2022/08/23 00:49:46;;;;;;;6.28;3.55;;;;;;;20.95;49.49;98085.81;5135682;27;20084;-92
2022/08/23 00:52:19;;;;;;;6.82;3.17;;;;;;;20.92;49.33;98091.44;5136535;27;20437;-90
2022/08/23 00:54:46;;;;;;;5.80;3.10;;;;;;;20.87;49.95;98091.81;5144468;27;20052;-94
2022/08/23 00:57:18;;;;;;;6.32;2.83;;;;;;;20.81;50.70;98100.41;5141959;27;20039;-91
2022/08/23 00:59:43;;;;;;;4.68;3.40;;;;;;;20.64;52.19;98099.03;5132733;28;20039;-93
2022/08/23 01:02:12;;;;;;;4.65;2.92;;;;;;;20.45;52.54;98096.03;5133810;27;20115;-93
2022/08/23 01:04:43;;;;;;;6.47;2.80;;;;;;;20.22;53.86;98093.31;5137745;27;20039;-94
2022/08/23 01:07:16;;;;;;;5.03;3.13;;;;;;;20.19;53.13;98101.66;5137324;27;20519;-94
2022/08/23 01:09:44;;;;;;;4.22;2.90;;;;;;;20.11;54.18;98101.38;5139843;27;20031;-93
2022/08/23 01:12:17;;;;;;;5.60;3.30;;;;;;;20.01;54.54;98114.69;5139160;27;20377;-92
2022/08/23 01:14:48;;;;;;;5.15;3.13;;;;;;;19.80;55.12;98087.53;5140296;27;20073;-93
2022/08/23 01:17:19;;;;;;;5.07;3.15;;;;;;;19.72;55.34;98098.03;5134217;27;20039;-93
2022/08/23 01:19:51;;;;;;;5.55;3.10;;;;;;;19.59;56.21;98089.97;5140524;27;20092;-94
2022/08/23 01:22:24;;;;;;;4.78;3.20;;;;;;;19.60;57.19;98101.59;5137666;27;20029;-93
2022/08/23 01:24:53;;;;;;;4.68;3.10;;;;;;;19.50;57.97;98104.13;5140257;27;20051;-94
2022/08/23 01:27:18;;;;;;;;;;;;;;;19.38;57.88;98100.50;5136525;27;20035;-94
2022/08/23 01:29:44;;;;;;;4.57;2.90;;;;;;;19.24;58.19;98089.88;5134414;27;20496;-91
2022/08/23 01:32:12;;;;;;;5.50;3.30;;;;;;;19.22;58.56;98092.69;5134062;27;20126;-93
2022/08/23 01:34:38;;;;;;;5.63;3.05;;;;;;;19.22;59.03;98098.06;5137237;27;20050;-93
2022/08/23 01:37:06;;;;;;;4.05;2.80;;;;;;;19.07;59.35;98091.13;5132855;27;20039;-93
2022/08/23 01:39:32;;;;;;;5.90;2.97;;;;;;;18.83;57.62;98075.75;5132761;27;20039;-94
2022/08/23 01:42:01;;;;;;;5.05;2.90;;;;;;;18.95;59.68;98092.84;5134046;27;20039;-92
2022/08/23 01:44:26;;;;;;;4.07;2.70;;;;;;;18.88;59.97;98084.34;5133019;27;20035;-94
2022/08/23 01:46:53;;;;;;;4.80;2.72;;;;;;;18.90;60.70;98094.16;5133423;27;20068;-94
2022/08/23 01:49:19;;;;;;;5.13;3.03;;;;;;;18.83;61.15;98091.06;5138179;27;20085;-94
2022/08/23 01:51:45;;;;;;;4.65;2.75;;;;;;;18.82;61.33;98089.31;5133624;27;20127;-92
2022/08/23 01:54:12;;;;;;;5.15;3.40;;;;;;;18.70;62.36;98090.19;5145551;27;20058;-93
2022/08/23 01:56:40;;;;;;;6.28;3.20;;;;;;;18.78;62.27;98107.53;5131996;27;20043;-92
2022/08/23 01:59:08;;;;;;;4.38;2.88;;;;;;;18.67;62.64;98100.19;5128924;27;20044;-93
2022/08/23 02:01:35;;;;;;;5.47;2.95;;;;;;;18.67;62.70;98118.16;5129942;27;20060;-93
2022/08/23 02:04:01;;;;;;;5.43;3.03;;;;;;;18.50;62.96;98103.22;5121935;27;20040;-92
2022/08/23 02:06:27;;;;;;;4.57;2.97;;;;;;;18.34;62.79;98108.78;5119812;27;20409;-92
2022/08/23 02:09:00;;;;;;;4.80;2.88;;;;;;;18.16;63.63;98123.53;5126764;27;20039;-93
2022/08/23 02:11:27;;;;;;;6.55;2.80;;;;;;;18.16;61.49;98126.22;5122750;27;20044;-94
2022/08/23 02:13:57;;;;;;;6.00;2.70;;;;;;;18.17;61.45;98112.66;5123755;27;20036;-92
2022/08/23 02:16:27;;;;;;;5.78;2.80;;;;;;;18.28;61.36;98101.13;5115976;27;20027;-93
2022/08/23 02:18:54;;;;;;;4.95;3.10;;;;;;;18.59;60.23;98123.25;5119882;27;20036;-93
2022/08/23 02:21:21;;;;;;;4.15;2.65;;;;;;;18.78;59.19;98117.44;5122221;27;20035;-94
2022/08/23 02:23:47;;;;;;;5.53;2.67;;;;;;;18.84;58.14;98093.63;5122207;27;20050;-93
2022/08/23 02:26:13;;;;;;;5.32;2.90;;;;;;;18.87;58.21;98101.50;5118506;27;20036;-92
2022/08/23 02:28:39;;;;;;;4.55;2.58;;;;;;;18.93;58.93;98107.41;5132635;27;20035;-94
2022/08/23 02:31:06;;;;;;;4.45;2.80;;;;;;;18.94;60.39;98112.69;5129241;27;20066;-94
2022/08/23 02:33:33;;;;;;;5.72;2.72;;;;;;;18.69;61.04;98124.31;5122268;27;20041;-94
2022/08/23 02:36:00;;;;;;;4.25;2.70;;;;;;;18.60;58.70;98112.34;5120737;27;20044;-93
2022/08/23 02:38:26;;;;;;;5.07;3.03;;;;;;;18.70;60.17;98119.81;5118082;28;20039;-93
2022/08/23 02:40:52;;;;;;;5.03;2.70;;;;;;;18.58;61.28;98108.03;5123897;27;20404;-94
2022/08/23 02:43:18;;;;;;;5.07;2.78;;;;;;;18.50;61.81;98126.56;5122403;27;20043;-92
2022/08/23 02:45:44;;;;;;;5.22;3.20;;;;;;;18.38;62.13;98136.38;5119773;27;20083;-94
2022/08/23 02:48:10;;;;;;;4.20;2.88;;;;;;;18.19;62.25;98113.38;5123141;27;20071;-93
2022/08/23 02:50:37;;;;;;;5.75;2.60;;;;;;;18.17;62.53;98130.63;5122612;27;20054;-93
2022/08/23 02:53:03;;;;;;;5.45;2.90;;;;;;;18.21;62.59;98127.59;5122355;27;20047;-94
2022/08/23 02:55:29;;;;;;;4.72;2.80;;;;;;;18.17;62.00;98126.13;5128113;27;20040;-93
2022/08/23 02:57:55;;;;;;;5.90;2.90;;;;;;;18.21;62.84;98122.22;5124557;27;20040;-94
2022/08/23 03:00:22;;;;;;;5.07;2.80;;;;;;;18.10;64.16;98124.78;5121969;27;20048;-94
2022/08/23 03:02:48;;;;;;;3.92;2.53;;;;;;;18.15;64.42;98140.63;5118314;28;20480;-94
2022/08/23 03:05:14;;;;;;;4.55;2.83;;;;;;;18.00;64.48;98118.31;5121090;27;20039;-93
2022/08/23 03:07:43;;;;;;;4.07;2.83;;;;;;;18.11;64.56;98136.41;5120369;27;20031;-94
2022/08/23 03:10:10;;;;;;;5.20;3.20;;;;;;;18.00;64.20;98118.31;5127427;27;20048;-93
2022/08/23 03:12:36;;;;;;;4.20;2.72;;;;;;;17.80;65.10;98119.63;5120419;27;20043;-93
2022/08/23 03:15:03;;;;;;;4.35;2.72;;;;;;;17.62;65.93;98125.25;5123083;27;20085;-93
2022/08/23 03:17:29;;;;;;;4.18;2.78;;;;;;;17.42;66.42;98113.13;5130705;27;20041;-94
2022/08/23 03:19:56;;;;;;;4.82;2.88;;;;;;;17.33;67.58;98143.31;5119198;27;20122;-93
2022/08/23 03:22:23;;;;;;;4.15;2.92;;;;;;;17.22;68.42;98127.03;5124623;27;20073;-92
2022/08/23 03:24:50;;;;;;;5.50;2.85;;;;;;;17.26;68.97;98152.69;5136371;27;20031;-93
2022/08/23 03:27:16;;;;;;;6.97;2.97;;;;;;;17.12;69.23;98139.31;5119245;27;20445;-92
2022/08/23 03:29:42;;;;;;;4.13;2.72;;;;;;;17.03;69.52;98141.63;5127998;27;20048;-92
2022/08/23 03:32:08;;;;;;;4.40;3.03;;;;;;;17.01;69.71;98134.63;5121709;27;20040;-93
2022/08/23 03:34:34;;;;;;;4.97;2.85;;;;;;;16.95;70.18;98143.06;5118779;28;20040;-93
2022/08/23 03:37:00;;;;;;;5.60;2.75;;;;;;;17.01;70.13;98159.66;5131871;27;20066;-92
2022/08/23 03:39:26;;;;;;;4.75;3.10;;;;;;;16.91;70.61;98149.56;5126784;27;20039;-93
2022/08/23 03:41:57;;;;;;;5.75;2.90;;;;;;;16.96;70.85;98160.91;5133437;27;20400;-90
2022/08/23 03:44:23;;;;;;;5.10;2.90;;;;;;;16.90;70.95;98151.41;5123108;27;20039;-92
2022/08/23 03:46:50;;;;;;;6.32;3.05;;;;;;;16.88;71.46;98145.28;5128637;27;20516;-92
2022/08/23 03:49:16;;;;;;;6.13;2.90;;;;;;;16.86;71.04;98143.66;5123635;27;20038;-91
2022/08/23 03:51:42;;;;;;;4.18;3.00;;;;;;;16.91;71.45;98152.25;5124508;27;20035;-93
2022/08/23 03:54:07;;;;;;;4.30;2.80;;;;;;;16.75;71.79;98141.59;5121110;27;20028;-93
2022/08/23 03:56:36;;;;;;;5.00;3.50;;;;;;;16.79;71.67;98145.81;5121214;28;20032;-92
2022/08/23 03:59:06;;;;;;;5.80;3.13;;;;;;;16.75;72.17;98161.25;5119117;27;20046;-91
2022/08/23 04:01:35;;;;;;;5.28;2.85;;;;;;;16.76;72.24;98171.03;5125576;27;20426;-92
2022/08/23 04:04:01;;;;;;;5.15;2.90;;;;;;;16.68;72.82;98167.09;5116688;28;20523;-93
2022/08/23 04:06:28;;;;;;;4.57;3.05;;;;;;;16.68;72.96;98173.34;5118365;27;20059;-91
2022/08/23 04:08:54;;;;;;;5.22;3.30;;;;;;;16.56;73.53;98166.03;5116775;27;20043;-92
2022/08/23 04:11:21;;;;;;;5.03;3.10;;;;;;;16.62;73.27;98165.66;5119464;27;20054;-92
2022/08/23 04:13:47;;;;;;;5.97;3.20;;;;;;;16.60;73.12;98172.94;5117563;28;20055;-92
2022/08/23 04:16:17;;;;;;;5.22;3.00;;;;;;;16.49;73.32;98162.00;5122701;27;20028;-93
2022/08/23 04:18:44;;;;;;;5.20;3.00;;;;;;;16.60;73.09;98192.56;5123436;27;20070;-93
2022/08/23 04:21:15;;;;;;;4.40;2.90;;;;;;;16.74;71.68;98204.28;5121506;27;20047;-94
2022/08/23 04:23:42;;;;;;;4.57;3.03;;;;;;;16.76;71.59;98203.25;5120498;27;20039;-94
2022/08/23 04:26:08;;;;;;;5.53;2.92;;;;;;;16.94;70.23;98197.75;5120211;27;20040;-93
2022/08/23 04:28:34;;;;;;;3.88;2.70;;;;;;;16.99;69.96;98191.09;5123278;27;20126;-93
2022/08/23 04:31:02;;;;;;;4.03;2.85;;;;;;;17.26;69.43;98209.13;5116378;28;20373;-93
2022/08/23 04:33:31;;;;;;;5.47;2.58;;;;;;;17.30;69.38;98213.34;5116461;28;20088;-92
2022/08/23 04:35:57;;;;;;;5.05;3.00;;;;;;;17.35;69.19;98207.69;5117619;28;20489;-93
2022/08/23 04:38:23;;;;;;;6.13;2.97;;;;;;;17.26;69.15;98203.75;5116488;28;20047;-94
2022/08/23 04:43:50;;;;;;;4.82;3.28;;;;;;;17.14;70.22;98216.16;5120786;27;20369;-93
2022/08/23 04:46:16;;;;;;;5.97;3.05;;;;;;;16.96;71.21;98218.19;5123698;28;20446;-93
2022/08/23 04:48:43;;;;;;;4.78;3.08;;;;;;;16.86;71.92;98217.00;5113863;28;20036;-93
2022/08/23 04:51:10;;;;;;;4.50;3.20;;;;;;;16.76;72.47;98226.53;5113266;28;20503;-93
2022/08/23 04:53:36;;;;;;;4.78;2.95;;;;;;;16.63;73.29;98231.78;5123996;27;20043;-94
2022/08/23 04:56:03;;;;;;;4.00;2.63;;;;;;;16.55;74.47;98236.78;5117814;28;20032;-93
2022/08/23 04:58:31;;;;;;;5.30;3.03;;;;;;;16.45;74.57;98224.84;5104804;28;20043;-93
2022/08/23 05:01:00;;;;;;;6.45;2.97;;;;;;;16.39;75.51;98223.38;5113105;28;20036;-93
2022/08/23 05:03:26;;;;;;;4.38;2.80;;;;;;;16.53;74.80;98239.53;5114614;28;20036;-92
2022/08/23 05:05:53;;;;;;;5.18;2.90;;;;;;;16.56;74.67;98244.72;5111896;28;20040;-93
2022/08/23 05:08:19;;;;;;;5.07;2.97;;;;;;;16.58;74.57;98242.81;5113136;28;20059;-93
2022/08/23 05:10:45;;;;;;;5.28;3.22;;;;;;;16.58;75.22;98234.75;5114646;28;20072;-94
2022/08/23 05:13:12;;;;;;;7.45;2.97;;;;;;;16.51;75.74;98229.88;5114106;28;20131;-93
2022/08/23 05:15:38;;;;;;;5.70;3.08;;;;;;;16.55;75.71;98229.59;5118224;28;20050;-94
2022/08/23 05:18:05;;;;;;;5.25;3.05;;;;;;;16.67;75.37;98253.94;5114268;28;20068;-93
2022/08/23 05:20:32;;;;;;;5.60;3.00;;;;;;;16.77;74.76;98252.44;5113064;28;20150;-94
2022/08/23 05:22:59;;;;;;;4.38;2.90;;;;;;;16.72;74.89;98244.69;5113065;28;20032;-92
2022/08/23 05:25:48;;;;;;;6.00;2.80;;;;;;;16.90;75.79;98264.19;5113171;28;20074;-92
2022/08/23 05:28:11;;;;;;;3.90;2.70;;;;;;;16.98;75.77;98261.91;5108472;28;20069;-93
2022/08/23 05:30:37;;;;;;;5.05;2.80;;;;;;;17.16;75.50;98272.50;5121970;28;20039;-94
2022/08/23 05:33:05;;;;;;;5.13;2.90;;;;;;;17.32;73.21;98261.63;5133852;28;20100;-93
2022/08/23 05:35:31;;;;;;;4.50;2.92;;;;;;;17.66;70.61;98257.69;5115474;28;20579;-94
2022/08/23 05:37:59;;;;;;;5.07;2.72;;;;;;;17.97;68.46;98259.28;5112661;28;20012;-93
2022/08/23 05:40:25;;;;;;;5.25;2.90;;;;;;;18.23;67.93;98259.38;5130666;28;20126;-94
2022/08/23 05:42:51;;;;;;;5.57;2.97;;;;;;;18.38;66.99;98252.13;5111288;28;20394;-94
2022/08/23 05:45:18;;;;;;;5.22;2.92;;;;;;;18.49;66.77;98252.25;5117291;28;20480;-94
2022/08/23 05:47:45;;;;;;;5.82;2.78;;;;;;;18.78;65.63;98265.59;5120327;28;20067;-95
2022/08/23 05:50:13;;;;;;;6.32;2.95;;;;;;;18.98;64.70;98250.75;5113692;28;20131;-94
2022/08/23 05:52:39;;;;;;;4.63;2.90;;;;;;;19.09;64.25;98240.94;5114947;28;20496;-93
2022/08/23 05:55:06;;;;;;;4.35;3.00;;;;;;;19.24;64.20;98249.78;5107913;28;20447;-94
2022/08/23 05:57:33;;;;;;;4.72;2.90;;;;;;;19.43;64.82;98270.03;5109587;28;20074;-95
2022/08/23 05:59:59;;;;;;;4.40;2.85;;;;;;;19.41;64.67;98240.50;5120049;28;20040;-94
2022/08/23 06:02:25;;;;;;;3.95;2.42;;;;;;;19.74;63.61;98252.53;5101952;28;20127;-95
2022/08/23 06:04:51;;;;;;;4.50;2.63;;;;;;;20.02;63.85;98255.91;5100660;28;20040;-95
2022/08/23 06:07:18;;;;;;;3.53;2.45;;;;;;;20.11;62.88;98247.13;5099003;28;20398;-95
2022/08/23 06:09:44;;;;;;;4.35;2.42;;;;;;;20.26;61.61;98229.78;5100011;28;20422;-96
2022/08/23 06:12:10;;;;;;;5.40;2.58;;;;;;;20.57;60.76;98250.91;5114049;28;20069;-95
2022/08/23 06:14:37;;;;;;;3.70;2.70;;;;;;;20.75;59.63;98243.25;5102274;28;20075;-94
2022/08/23 06:17:04;;;;;;;3.78;2.50;;;;;;;20.88;58.54;98254.81;5099570;28;20036;-94
2022/08/23 06:19:30;;;;;;;4.63;2.92;;;;;;;21.02;59.23;98267.28;5101348;28;20052;-94
2022/08/23 06:21:56;;;;;;;4.18;2.50;;;;;;;21.12;58.64;98266.47;5101362;28;20505;-94
2022/08/23 06:24:25;;;;;;;4.00;2.42;;;;;;;21.17;58.24;98257.97;5101409;28;20044;-94
2022/08/23 06:26:51;;;;;;;3.90;2.40;;;;;;;21.11;57.48;98248.50;5100161;28;20048;-94
2022/08/23 06:29:18;;;;;;;4.40;2.30;;;;;;;21.14;57.69;98231.16;5103153;28;20089;-94
2022/08/23 06:31:47;;;;;;;3.92;2.30;;;;;;;21.18;58.15;98262.38;5098553;28;20036;-94
2022/08/23 06:34:16;;;;;;;;;;;;;;;21.23;57.84;98272.84;5112748;28;20047;-94
2022/08/23 06:36:42;;;;;;;3.78;2.53;;;;;;;21.39;58.00;98264.41;5097563;28;19916;-96
2022/08/23 06:39:10;;;;;;;3.50;2.47;;;;;;;21.54;57.21;98255.94;5097634;28;20040;-95
2022/08/23 06:41:37;;;;;;;3.80;2.50;;;;;;;21.78;55.74;98256.78;5099583;28;20097;-95
2022/08/23 06:44:05;;;;;;;3.78;2.47;;;;;;;21.87;56.93;98250.63;5107877;28;20046;-94
2022/08/23 06:46:31;;;;;;;3.30;2.25;;;;;;;21.92;55.80;98243.88;5096616;28;20040;-93
2022/08/23 06:48:59;;;;;;;3.15;2.25;;;;;;;22.10;55.13;98235.22;5101181;28;20052;-93
2022/08/23 06:51:27;;;;;;;3.78;2.47;;;;;;;22.39;53.70;98272.56;5092431;28;20036;-92
2022/08/23 06:53:55;;;;;;;5.22;2.63;;;;;;;22.47;54.74;98253.84;5102187;28;20044;-92
2022/08/23 06:56:21;;;;;;;3.60;2.25;;;;;;;22.65;53.83;98263.09;5101397;28;20040;-93
2022/08/23 06:58:49;;;;;;;5.70;2.58;;;;;;;22.90;53.09;98266.41;5100357;28;20103;-92
2022/08/23 07:01:20;;;;;;;4.07;2.50;;;;;;;22.94;52.58;98282.31;5103039;28;20131;-96
2022/08/23 07:03:46;;;;;;;5.15;2.45;;;;;;;22.87;52.88;98259.41;5099780;28;20044;-96
2022/08/23 07:06:12;;;;;;;5.63;2.40;;;;;;;22.97;52.39;98262.22;5099915;28;20052;-93
2022/08/23 07:08:38;;;;;;;3.63;2.30;;;;;;;23.02;52.20;98259.13;5098771;28;20156;-94
2022/08/23 07:11:04;;;;;;;6.80;2.30;;;;;;;23.16;53.09;98266.91;5101969;28;20044;-92
2022/08/23 07:13:30;;;;;;;4.10;2.40;;;;;;;23.16;52.09;98267.78;5101812;28;20386;-93
2022/08/23 07:15:59;;;;;;;3.00;1.98;;;;;;;23.07;52.81;98275.84;5100374;28;20040;-93
2022/08/23 07:18:25;;;;;;;4.53;2.20;;;;;;;23.23;52.46;98267.25;5104074;28;20088;-94
2022/08/23 07:20:55;;;;;;;3.92;2.40;;;;;;;23.36;51.09;98273.34;5102901;28;20070;-91
2022/08/23 07:23:21;;;;;;;3.35;2.20;;;;;;;23.48;50.48;98274.94;5098653;28;20042;-91
2022/08/23 07:25:47;;;;;;;4.47;2.30;;;;;;;23.36;50.88;98263.34;5113016;28;20393;-93
2022/08/23 07:28:13;;;;;;;3.00;2.10;;;;;;;23.68;49.60;98270.50;5099229;28;20040;-93
2022/08/23 07:30:39;;;;;;;4.18;2.28;;;;;;;23.96;49.30;98284.31;5103939;28;20040;-91
2022/08/23 07:33:07;;;;;;;2.60;2.00;;;;;;;23.98;48.72;98266.91;5097890;28;20044;-94
2022/08/23 07:35:33;;;;;;;3.30;2.20;;;;;;;24.13;47.69;98272.78;5098162;28;20048;-93
2022/08/23 07:37:59;;;;;;;2.85;2.10;;;;;;;23.89;47.91;98250.56;5109289;28;20147;-94
2022/08/23 07:40:26;;;;;;;3.08;2.03;;;;;;;23.55;49.23;98272.53;5103275;28;20105;-95
2022/08/23 07:42:54;;;;;;;3.75;2.50;;;;;;;23.63;47.74;98269.16;5103467;28;20047;-92
2022/08/23 07:45:20;;;;;;;3.53;2.42;;;;;;;23.62;48.38;98264.75;5099376;28;20054;-94
2022/08/23 07:47:47;;;;;;;4.32;2.08;;;;;;;23.97;48.02;98257.03;5098092;28;20067;-94
2022/08/23 07:50:15;;;;;;;4.10;2.10;;;;;;;24.16;49.02;98269.81;5100844;28;20401;-94
2022/08/23 07:52:41;;;;;;;2.95;2.20;;;;;;;23.76;47.19;98267.09;5097275;28;20032;-94
2022/08/23 07:55:08;;;;;;;6.60;2.97;;;;;;;23.58;48.99;98285.88;5106054;28;20039;-92
2022/08/23 07:57:34;;;;;;;6.05;3.13;;;;;;;24.06;48.27;98290.66;5106480;28;20074;-93
2022/08/23 08:00:00;;;;;;;5.53;2.38;;;;;;;23.77;46.32;98266.97;5096950;28;20040;-91
2022/08/23 08:02:26;;;;;;;8.10;3.08;;;;;;;23.64;48.68;98270.88;5099058;28;20039;-94
2022/08/23 08:04:52;;;;;;;3.47;2.30;;;;;;;24.18;47.41;98283.22;5100404;28;20088;-93
2022/08/23 08:07:20;;;;;;;4.30;2.33;;;;;;;24.18;47.49;98269.66;5110613;28;20043;-96
2022/08/23 08:09:46;;;;;;;4.47;2.20;;;;;;;24.65;45.97;98288.91;5094234;28;20044;-93
2022/08/23 08:12:12;;;;;;;4.63;2.20;;;;;;;24.74;45.47;98290.78;5091983;28;20060;-94
2022/08/23 08:14:39;;;;;;;2.88;2.13;;;;;;;24.97;43.98;98287.78;5101041;28;20436;-94
2022/08/23 08:17:05;;;;;;;3.33;2.20;;;;;;;24.72;44.22;98291.91;5101031;28;20062;-94
2022/08/23 08:19:31;;;;;;;3.00;1.98;;;;;;;24.30;44.26;98282.13;5096038;28;20499;-94
2022/08/23 08:21:57;;;;;;;3.22;2.00;;;;;;;24.79;44.95;98296.66;5101865;28;20043;-94
2022/08/23 08:24:25;;;;;;;3.55;2.25;;;;;;;25.00;44.57;98272.03;5100271;28;20494;-94
2022/08/23 08:26:51;;;;;;;5.30;2.22;;;;;;;25.32;42.49;98297.22;5097159;28;20378;-93
2022/08/23 08:29:17;;;;;;;3.25;2.00;;;;;;;25.49;42.53;98287.44;5095024;28;20061;-93
2022/08/23 08:31:45;;;;;;;4.15;2.40;;;;;;;25.57;42.04;98268.50;5099259;28;20044;-93
2022/08/23 08:34:12;;;;;;;3.88;2.08;;;;;;;25.78;42.54;98276.41;5096608;28;20040;-92
2022/08/23 08:36:42;;;;;;;3.45;2.13;;;;;;;25.83;42.50;98290.47;5097030;28;20553;-92
2022/08/23 08:39:10;;;;;;;3.50;2.20;;;;;;;25.75;43.53;98274.88;5110665;28;20036;-92
2022/08/23 08:41:47;;;;;;;2.75;2.10;;;;;;;26.02;42.75;98295.88;5102642;28;20044;-92
2022/08/23 08:44:25;;;;;;;3.10;2.00;;;;;;;25.72;42.32;98280.63;5096155;28;20103;-91
2022/08/23 08:46:55;;;;;;;3.45;2.15;;;;;;;25.88;41.49;98292.75;5101626;28;20438;-92
2022/08/23 08:49:32;;;;;;;3.60;2.20;;;;;;;26.06;40.56;98273.75;5098174;28;20036;-93
2022/08/23 08:52:01;;;;;;;4.65;1.90;;;;;;;25.88;40.64;98270.94;5098052;28;20036;-93
2022/08/23 08:54:30;;;;;;;3.53;2.25;;;;;;;26.16;40.62;98269.09;5096686;28;20111;-93
2022/08/23 08:56:59;;;;;;;;;;;;;;;26.36;40.17;98295.22;5102372;28;20047;-93
2022/08/23 08:59:29;;;;;;;4.18;2.35;;;;;;;26.20;41.09;98281.41;5104406;28;19924;-93
2022/08/23 09:01:57;;;;;;;4.07;2.38;;;;;;;25.84;43.20;98286.72;5103617;28;20059;-94
2022/08/23 09:04:24;;;;;;;3.67;2.10;;;;;;;26.31;42.34;98289.38;5096305;28;20509;-94
2022/08/23 09:06:57;;;;;;;4.25;2.30;;;;;;;26.45;41.21;98279.81;5104911;28;20071;-93
2022/08/23 09:09:51;;;;;;;3.40;2.13;;;;;;;26.25;40.87;98290.00;5096415;28;20090;-94
2022/08/23 09:12:29;;;;;;;3.85;2.20;;;;;;;26.13;41.27;98289.34;5093429;28;20047;-94
2022/08/23 09:15:00;;;;;;;;;;;;;;;26.23;40.73;98294.72;5098338;28;20041;-93
2022/08/23 09:17:34;;;;;;;3.50;2.03;;;;;;;26.52;41.30;98285.50;5096957;28;19923;-93
2022/08/23 09:20:05;;;;;;;4.50;1.90;;;;;;;26.91;39.53;98296.13;5096575;28;20040;-93
2022/08/23 09:22:36;;;;;;;3.80;2.05;;;;;;;26.96;39.46;98280.16;5096584;28;20512;-94
2022/08/23 09:25:03;;;;;;;3.40;2.20;;;;;;;26.80;39.56;98291.78;5094714;28;20093;-93
2022/08/23 09:27:31;;;;;;;3.15;2.10;;;;;;;26.22;40.10;98282.13;5095657;28;20032;-94
2022/08/23 09:29:59;;;;;;;3.20;2.00;;;;;;;26.34;40.18;98291.78;5095857;28;20435;-94
2022/08/23 09:32:29;;;;;;;2.60;1.98;;;;;;;26.75;39.38;98269.56;5099916;28;20047;-95
2022/08/23 09:35:06;;;;;;;5.70;2.17;;;;;;;26.50;39.51;98282.94;5099985;28;20048;-93
2022/08/23 09:37:46;;;;;;;3.60;2.30;;;;;;;27.07;39.75;98270.88;5101008;28;20876;-92
2022/08/23 09:40:16;;;;;;;4.68;2.30;;;;;;;27.36;38.02;98286.97;5102148;28;20371;-93
2022/08/23 09:42:46;;;;;;;2.63;2.10;;;;;;;27.58;38.06;98282.84;5097365;28;20052;-93
2022/08/23 09:45:25;;;;;;;4.47;2.05;;;;;;;27.82;37.63;98271.19;5099222;28;20547;-95
2022/08/23 09:47:51;;;;;;;3.83;2.10;;;;;;;28.00;37.15;98276.63;5101866;28;20032;-93
2022/08/23 09:50:25;;;;;;;2.60;2.10;;;;;;;28.00;36.24;98261.09;5101424;28;20063;-95
2022/08/23 09:52:56;;;;;;;3.42;2.10;;;;;;;27.96;35.20;98250.66;5099511;28;20122;-93
2022/08/23 09:55:30;;;;;;;3.15;2.00;;;;;;;28.29;35.37;98280.81;5097813;28;20123;-92
2022/08/23 09:57:59;;;;;;;3.33;1.90;;;;;;;28.19;34.17;98286.41;5097918;28;20093;-93
2022/08/23 10:00:28;;;;;;;4.20;2.55;;;;;;;27.74;35.67;98258.38;5103878;28;20135;-93
2022/08/23 10:03:14;;;;;;;2.65;1.90;;;;;;;27.71;35.68;98271.50;5099804;28;20042;-94
2022/08/23 10:05:41;;;;;;;3.55;2.28;;;;;;;27.30;35.85;98273.97;5099118;28;20497;-93
2022/08/23 10:08:07;;;;;;;3.50;2.20;;;;;;;27.86;34.93;98278.94;5099181;28;20062;-92
2022/08/23 10:10:42;;;;;;;3.28;2.03;;;;;;;28.09;33.70;98275.63;5098891;28;20047;-93
2022/08/23 10:13:09;;;;;;;4.80;2.10;;;;;;;28.10;33.56;98269.13;5100594;28;20040;-92
2022/08/23 10:15:48;;;;;;;3.30;2.20;;;;;;;28.08;34.38;98273.91;5099996;28;20139;-94
2022/08/23 10:18:18;;;;;;;;;;;;;;;28.03;32.78;98279.03;5108467;28;20044;-94
2022/08/23 10:20:51;;;;;;;3.28;2.30;;;;;;;27.70;33.25;98253.41;5096736;28;19935;-92
2022/08/23 10:23:28;;;;;;;3.45;2.08;;;;;;;28.25;32.68;98274.81;5097401;28;20119;-94
2022/08/23 10:25:57;;;;;;;2.70;2.00;;;;;;;28.19;32.22;98256.34;5097902;28;20134;-92
2022/08/23 10:31:46;;;;;;;3.78;2.15;;;;;;;28.29;33.54;98265.28;5112790;27;20385;-92
2022/08/23 10:34:29;;;;;;;3.63;2.22;;;;;;;28.31;32.75;98265.97;5112691;28;20063;-93
2022/08/23 10:37:07;;;;;;;2.90;2.08;;;;;;;27.81;34.01;98256.69;5112602;28;20081;-92
2022/08/23 10:39:44;;;;;;;2.92;2.08;;;;;;;28.08;34.45;98259.38;5112675;28;20048;-93
2022/08/23 10:42:20;;;;;;;3.15;2.20;;;;;;;28.48;34.94;98264.16;5108453;28;20111;-92
2022/08/23 10:44:54;;;;;;;2.65;1.95;;;;;;;28.26;33.36;98257.41;5112012;28;20039;-93
2022/08/23 10:47:29;;;;;;;3.92;2.00;;;;;;;28.72;34.74;98263.34;5126405;28;20036;-92
2022/08/23 10:50:00;;;;;;;2.35;1.92;;;;;;;28.60;32.40;98270.16;5112879;27;20060;-93
2022/08/23 10:52:31;;;;;;;3.95;2.20;;;;;;;28.78;31.13;98273.63;5112083;28;20146;-92
2022/08/23 10:55:05;;;;;;;2.90;1.92;;;;;;;28.79;31.34;98258.03;5121164;28;20032;-90
2022/08/23 10:57:35;;;;;;;2.95;2.10;;;;;;;28.81;31.97;98256.84;5110116;28;20040;-91
2022/08/23 11:00:05;;;;;;;3.45;2.00;;;;;;;28.99;31.41;98248.44;5111911;28;20040;-92
2022/08/23 11:02:43;;;;;;;4.68;2.17;;;;;;;29.06;32.05;98257.72;5112763;28;20505;-91
2022/08/23 11:05:18;;;;;;;2.90;2.00;;;;;;;28.87;32.68;98253.44;5114407;28;20393;-93
2022/08/23 11:07:57;;;;;;;3.22;2.30;;;;;;;28.57;33.77;98267.75;5116352;28;20063;-93
2022/08/23 11:10:28;;;;;;;3.40;2.33;;;;;;;28.60;32.66;98251.84;5114611;27;20040;-94
2022/08/23 11:12:57;;;;;;;2.83;2.10;;;;;;;28.81;32.50;98250.53;5114588;28;20044;-93
2022/08/23 11:15:42;;;;;;;3.72;2.20;;;;;;;28.86;31.55;98259.06;5114256;28;20036;-93
2022/08/23 11:18:30;;;;;;;4.03;2.20;;;;;;;29.03;31.32;98258.03;5114329;28;20497;-93
2022/08/23 11:21:05;;;;;;;3.50;1.90;;;;;;;29.24;30.26;98243.84;5112556;28;20366;-95
2022/08/23 11:23:53;;;;;;;2.90;2.08;;;;;;;29.40;31.73;98236.63;5110030;28;20055;-95
2022/08/23 11:27:04;;;;;;;2.97;2.15;;;;;;;29.74;30.74;98263.81;5114495;28;20153;-93
2022/08/23 11:29:39;;;;;;;3.55;2.13;;;;;;;29.61;31.14;98261.59;5110158;28;20047;-95
2022/08/23 11:32:33;;;;;;;3.22;2.13;;;;;;;29.68;29.78;98253.53;5115069;28;20036;-94
2022/08/23 11:35:31;;;;;;;4.03;2.13;;;;;;;29.78;29.57;98261.59;5112390;28;20834;-93
2022/08/23 11:37:59;;;;;;;3.60;2.20;;;;;;;29.08;29.86;98258.41;5112713;28;20036;-92
2022/08/23 11:40:55;;;;;;;3.67;2.38;;;;;;;29.09;29.48;98256.53;5111159;28;20443;-93
2022/08/23 11:43:26;;;;;;;2.72;2.10;;;;;;;29.03;29.16;98259.94;5096550;28;20036;-93
2022/08/23 11:45:52;;;;;;;4.30;2.50;;;;;;;28.83;28.94;98256.69;5096931;28;20040;-93
2022/08/23 11:48:35;;;;;;;3.47;2.35;;;;;;;28.81;29.68;98250.53;5100215;28;20497;-94
2022/08/23 11:51:19;;;;;;;3.08;2.10;;;;;;;29.06;30.39;98246.75;5098953;28;20287;-93
2022/08/23 11:54:06;;;;;;;3.55;2.50;;;;;;;28.92;30.26;98257.53;5097664;28;20042;-94
2022/08/23 11:56:47;;;;;;;3.93;2.47;;;;;;;28.71;31.51;98275.28;5098885;28;20070;-94